createdAt,value
2023-05-29T00:01:28.537Z,3.900
2023-05-29T00:02:25.727Z,3.700
2023-05-29T00:03:25.303Z,3.900
2023-05-29T00:04:25.345Z,3.799
2023-05-29T00:05:25.464Z,4
2023-05-29T00:06:25.104Z,3.900
2023-05-29T00:07:25.213Z,3.799
2023-05-29T00:08:24.790Z,4
2023-05-29T00:09:25.092Z,4.099
2023-05-29T00:10:25.345Z,4.199
2023-05-29T00:11:25.312Z,4
2023-05-29T00:12:25.655Z,4.300
2023-05-29T00:13:25.456Z,4
2023-05-29T00:14:25.470Z,4.099
2023-05-29T00:15:25.904Z,4.300
2023-05-29T00:16:25.108Z,4
2023-05-29T00:17:25.137Z,4.099
2023-05-29T00:18:25.034Z,4
2023-05-29T00:19:24.732Z,4.199
2023-05-29T00:20:26.005Z,3.599
2023-05-29T00:21:25.017Z,4.400
2023-05-29T00:22:24.932Z,4
2023-05-29T00:23:25.086Z,4.199
2023-05-29T00:24:25.172Z,4
2023-05-29T00:27:24.852Z,4.199
2023-05-29T00:28:25.381Z,4.099
2023-05-29T00:29:25.056Z,4
2023-05-29T00:30:25.050Z,4.099
2023-05-29T00:31:24.949Z,4.400
2023-05-29T00:32:24.941Z,4.099
2023-05-29T00:33:24.986Z,4.400
2023-05-29T00:34:25.032Z,4.099
2023-05-29T00:35:25.025Z,4
2023-05-29T00:36:25.226Z,3.700
2023-05-29T00:37:25.254Z,4.099
2023-05-29T00:38:25.201Z,4.400
2023-05-29T00:39:24.982Z,4
2023-05-29T00:40:24.994Z,3.900
2023-05-29T00:41:25.211Z,4.099
2023-05-29T00:42:25.185Z,4
2023-05-29T00:43:24.745Z,4.099
2023-05-29T00:44:25.509Z,4
2023-05-29T00:45:25.650Z,4.300
2023-05-29T00:46:25.535Z,4.400
2023-05-29T00:47:25.597Z,4.5
2023-05-29T00:48:25.348Z,4.300
2023-05-29T00:49:25.088Z,4.599
2023-05-29T00:50:24.916Z,4.699
2023-05-29T00:51:24.889Z,4.599
2023-05-29T00:52:25.537Z,4.699
2023-05-29T00:53:25.218Z,4.599
2023-05-29T00:54:24.752Z,4.300
2023-05-29T00:55:25.419Z,4.599
2023-05-29T00:56:25.247Z,4.800
2023-05-29T00:57:25.020Z,4.5
2023-05-29T00:58:25.007Z,5
2023-05-29T00:59:25.689Z,4.400
2023-05-29T01:00:34.733Z,4.300
2023-05-29T01:01:25.857Z,4.699
2023-05-29T01:02:25.018Z,4.400
2023-05-29T01:05:24.988Z,4.099
2023-05-29T01:06:24.974Z,4.300
2023-05-29T01:08:25.109Z,4.5
2023-05-29T01:09:25.292Z,4.599
2023-05-29T01:10:24.934Z,4.699
2023-05-29T01:11:24.922Z,4.300
2023-05-29T01:12:25.266Z,4.400
2023-05-29T01:13:24.908Z,4.5
2023-05-29T01:14:25.712Z,4.199
2023-05-29T01:15:26.060Z,4.5
2023-05-29T01:16:25.029Z,4.199
2023-05-29T01:18:25.044Z,4.300
2023-05-29T01:19:24.729Z,3.700
2023-05-29T01:20:25.175Z,4.300
2023-05-29T01:21:25.304Z,4.099
2023-05-29T01:22:25.312Z,4.400
2023-05-29T01:23:24.857Z,4
2023-05-29T01:24:25.408Z,4.300
2023-05-29T01:25:25.343Z,4.199
2023-05-29T01:26:25.130Z,4.300
2023-05-29T01:27:24.906Z,4.199
2023-05-29T01:28:25.396Z,4.300
2023-05-29T01:29:25.126Z,4.099
2023-05-29T01:30:25.464Z,4.199
2023-05-29T01:31:25.013Z,3.900
2023-05-29T01:32:24.968Z,4.300
2023-05-29T01:35:25.139Z,3.900
2023-05-29T01:36:24.965Z,4.199
2023-05-29T01:37:24.956Z,4
2023-05-29T01:38:24.893Z,3.799
2023-05-29T01:39:25.703Z,4.300
2023-05-29T01:40:25.669Z,4.199
2023-05-29T01:41:25.436Z,3.900
2023-05-29T01:42:25.433Z,4.099
2023-05-29T01:43:25.158Z,4.199
2023-05-29T01:44:24.969Z,4.099
2023-05-29T01:45:25.334Z,3.799
2023-05-29T01:46:25.129Z,4
2023-05-29T01:48:24.976Z,4.199
2023-05-29T01:49:25.809Z,4.099
2023-05-29T01:50:25.531Z,4.199
2023-05-29T01:51:25.371Z,4.099
2023-05-29T01:53:25.066Z,4.300
2023-05-29T01:54:25.034Z,3.900
2023-05-29T01:55:24.919Z,3.799
2023-05-29T01:56:25.772Z,3.900
2023-05-29T01:57:25.577Z,3.599
2023-05-29T01:58:25.327Z,4
2023-05-29T02:00:26.260Z,4.099
2023-05-29T02:01:25.798Z,4
2023-05-29T02:02:26.250Z,3.900
2023-05-29T02:03:26.121Z,3.799
2023-05-29T02:05:25.287Z,4.199
2023-05-29T02:06:25.449Z,4
2023-05-29T02:07:25.306Z,4.5
2023-05-29T02:08:25.287Z,4.300
2023-05-29T02:09:25.185Z,4
2023-05-29T02:10:25.350Z,3.900
2023-05-29T02:11:25.109Z,4.300
2023-05-29T02:12:25.136Z,4.199
2023-05-29T02:13:25.113Z,4
2023-05-29T02:14:24.861Z,3.799
2023-05-29T02:15:24.968Z,4.300
2023-05-29T02:16:25.076Z,4
2023-05-29T02:17:25.216Z,4.300
2023-05-29T02:18:25.047Z,4.099
2023-05-29T02:19:24.683Z,4.400
2023-05-29T02:20:25.040Z,4
2023-05-29T02:21:24.896Z,3.900
2023-05-29T02:22:24.843Z,4.199
2023-05-29T02:23:24.908Z,4.300
2023-05-29T02:24:25.067Z,4
2023-05-29T02:25:24.966Z,3.799
2023-05-29T02:26:25.005Z,4.099
2023-05-29T02:27:25.067Z,3.799
2023-05-29T02:29:24.913Z,4.300
2023-05-29T02:30:25.594Z,4
2023-05-29T02:31:25.953Z,3.799
2023-05-29T02:32:25.516Z,4.199
2023-05-29T02:33:25.789Z,4
2023-05-29T02:34:24.934Z,3.900
2023-05-29T02:35:25.316Z,4.199
2023-05-29T02:36:25.262Z,4
2023-05-29T02:37:25.189Z,3.900
2023-05-29T02:38:25.247Z,3.799
2023-05-29T02:41:25.285Z,3.599
2023-05-29T02:45:25.731Z,4
2023-05-29T02:46:25.785Z,3.799
2023-05-29T02:47:25.012Z,3.400
2023-05-29T02:48:25.031Z,3.700
2023-05-29T02:50:25.042Z,3.599
2023-05-29T02:51:25.120Z,3.700
2023-05-29T02:52:25.251Z,3.900
2023-05-29T02:53:24.975Z,3.700
2023-05-29T02:54:25.112Z,3.5
2023-05-29T02:55:25.533Z,3.400
2023-05-29T02:56:25.562Z,3.5
2023-05-29T02:57:25.538Z,3.299
2023-05-29T02:58:25.803Z,3.200
2023-05-29T02:59:24.704Z,3.700
2023-05-29T03:00:26.031Z,3.799
2023-05-29T03:01:25.031Z,3.700
2023-05-29T03:02:25.339Z,4
2023-05-29T03:03:25.612Z,3.400
2023-05-29T03:05:25.803Z,3.299
2023-05-29T03:08:25.132Z,3.099
2023-05-29T03:09:24.978Z,3.200
2023-05-29T03:10:25.532Z,3.299
2023-05-29T03:11:25.508Z,3.5
2023-05-29T03:13:25.277Z,3.200
2023-05-29T03:14:25.035Z,3.400
2023-05-29T03:15:25.405Z,3.700
2023-05-29T03:17:25.202Z,3.599
2023-05-29T03:18:25.443Z,3.200
2023-05-29T03:19:25.189Z,3.5
2023-05-29T03:20:25.749Z,3.599
2023-05-29T03:21:24.950Z,3.5
2023-05-29T03:22:24.913Z,3.099
2023-05-29T03:23:27.453Z,3.5
2023-05-29T03:24:25.454Z,3.900
2023-05-29T03:25:25.447Z,3.799
2023-05-29T03:26:25.080Z,3.599
2023-05-29T03:27:25.231Z,3.5
2023-05-29T03:28:25.160Z,3.599
2023-05-29T03:29:25.212Z,3.299
2023-05-29T03:30:25.828Z,3.700
2023-05-29T03:31:25.471Z,3.599
2023-05-29T03:32:25.780Z,3
2023-05-29T03:33:25.300Z,3.700
2023-05-29T03:34:25.393Z,3.599
2023-05-29T03:35:25.552Z,3.299
2023-05-29T03:36:25.763Z,3.5
2023-05-29T03:38:25.168Z,3.200
2023-05-29T03:39:25.204Z,3.700
2023-05-29T03:40:25.463Z,3.400
2023-05-29T03:41:25.245Z,3.799
2023-05-29T03:42:25.224Z,3.700
2023-05-29T03:43:25.156Z,3.5
2023-05-29T03:45:25.618Z,3.299
2023-05-29T03:46:25.809Z,3
2023-05-29T03:47:25.783Z,3.400
2023-05-29T03:50:25.321Z,3.5
2023-05-29T03:51:25.202Z,3.400
2023-05-29T03:52:25.477Z,3.5
2023-05-29T03:53:25.601Z,3.200
2023-05-29T03:54:25.116Z,3.400
2023-05-29T03:55:25.405Z,3.700
2023-05-29T03:56:25.503Z,3.5
2023-05-29T03:57:25.539Z,3.299
2023-05-29T03:58:25.335Z,3.400
2023-05-29T04:00:26.729Z,3.5
2023-05-29T04:01:25.124Z,3.400
2023-05-29T04:02:25.565Z,3.299
2023-05-29T04:04:25.232Z,3.5
2023-05-29T04:05:25.626Z,3.599
2023-05-29T04:06:24.988Z,3.700
2023-05-29T04:07:25.076Z,3.599
2023-05-29T04:08:25.143Z,3.799
2023-05-29T04:09:25.265Z,3.200
2023-05-29T04:10:25.747Z,3.299
2023-05-29T04:11:25.488Z,3.599
2023-05-29T04:12:25.908Z,3.5
2023-05-29T04:13:24.776Z,3.299
2023-05-29T04:14:25.765Z,3.599
2023-05-29T04:16:25.849Z,3.400
2023-05-29T04:17:25.456Z,3.200
2023-05-29T04:18:25.820Z,2.900
2023-05-29T04:19:25.859Z,3.700
2023-05-29T04:21:25.180Z,3.400
2023-05-29T04:22:25.238Z,3
2023-05-29T04:23:25.579Z,3.5
2023-05-29T04:25:25.434Z,3.400
2023-05-29T04:26:25.289Z,3.5
2023-05-29T04:27:25.501Z,3.299
2023-05-29T04:29:25.793Z,3.5
2023-05-29T04:30:26.155Z,3.400
2023-05-29T04:31:25.548Z,3.200
2023-05-29T04:32:26.144Z,3.299
2023-05-29T04:33:25.127Z,3.799
2023-05-29T04:34:24.882Z,3.900
2023-05-29T04:35:25.210Z,3.299
2023-05-29T04:36:25.242Z,3.099
2023-05-29T04:37:25.296Z,3.299
2023-05-29T04:38:25.487Z,3.099
2023-05-29T04:39:25.858Z,3.400
2023-05-29T04:40:25.420Z,3.599
2023-05-29T04:41:25.643Z,3.5
2023-05-29T04:42:25.972Z,3.799
2023-05-29T04:43:25.521Z,3.599
2023-05-29T04:44:25.796Z,3.799
2023-05-29T04:45:25.542Z,3.5
2023-05-29T04:46:25.916Z,3.599
2023-05-29T04:47:25.704Z,3.5
2023-05-29T04:48:25.861Z,3.599
2023-05-29T04:49:25.137Z,3.799
2023-05-29T04:50:25.395Z,3.599
2023-05-29T04:51:25.939Z,3.5
2023-05-29T04:52:25.401Z,3.299
2023-05-29T04:54:26.061Z,3.400
2023-05-29T04:55:25.299Z,3.299
2023-05-29T04:57:25.777Z,3.400
2023-05-29T04:58:25.725Z,3.299
2023-05-29T04:59:25.945Z,3.599
2023-05-29T05:00:26.079Z,3.400
2023-05-29T05:01:25.527Z,3.299
2023-05-29T05:02:26.254Z,3.400
2023-05-29T05:03:25.616Z,3.099
2023-05-29T05:04:26.247Z,3.299
2023-05-29T05:05:25.798Z,3.400
2023-05-29T05:07:25.736Z,3.599
2023-05-29T05:08:25.511Z,3.299
2023-05-29T05:09:25.988Z,3.099
2023-05-29T05:10:25.776Z,3.900
2023-05-29T05:11:24.860Z,3.299
2023-05-29T05:12:25.218Z,3.400
2023-05-29T05:13:25.212Z,3.099
2023-05-29T05:14:25.579Z,3.299
2023-05-29T05:15:26.178Z,3.200
2023-05-29T05:16:25.874Z,3.700
2023-05-29T05:17:25.410Z,3.099
2023-05-29T05:18:25.572Z,3.200
2023-05-29T05:21:25.132Z,3
2023-05-29T05:22:25.577Z,3.099
2023-05-29T05:23:25.495Z,3.200
2023-05-29T05:24:25.745Z,3.599
2023-05-29T05:25:25.020Z,3.299
2023-05-29T05:26:25.572Z,2.900
2023-05-29T05:27:25.972Z,3.400
2023-05-29T05:28:24.958Z,3.5
2023-05-29T05:29:26.354Z,3.400
2023-05-29T05:30:25.818Z,3.099
2023-05-29T05:31:24.991Z,3.200
2023-05-29T05:32:25.600Z,3.700
2023-05-29T05:33:26.089Z,3.400
2023-05-29T05:34:25.460Z,3.200
2023-05-29T05:35:25.950Z,3.299
2023-05-29T05:36:25.398Z,3.599
2023-05-29T05:37:25.517Z,3.700
2023-05-29T05:38:25.364Z,3.200
2023-05-29T05:41:25.873Z,3.5
2023-05-29T05:42:25.307Z,3.299
2023-05-29T05:43:25.990Z,3.200
2023-05-29T05:44:25.944Z,3.599
2023-05-29T05:45:26.494Z,3.5
2023-05-29T05:46:27.532Z,3.400
2023-05-29T05:47:25.629Z,4.099
2023-05-29T05:48:24.970Z,3.799
2023-05-29T05:49:25.465Z,3.5
2023-05-29T05:50:25.565Z,3.799
2023-05-29T05:51:25.780Z,3.700
2023-05-29T05:52:25.266Z,3.599
2023-05-29T05:53:25.704Z,3.700
2023-05-29T05:54:26.083Z,3.799
2023-05-29T05:55:25.971Z,3.700
2023-05-29T05:56:25.366Z,3.5
2023-05-29T05:57:25.600Z,3.400
2023-05-29T05:58:26.000Z,3.799
2023-05-29T05:59:25.671Z,3.900
2023-05-29T06:00:27.084Z,3.700
2023-05-29T06:01:25.274Z,3.799
2023-05-29T06:02:26.124Z,3.700
2023-05-29T06:03:26.130Z,3.799
2023-05-29T06:05:26.284Z,4
2023-05-29T06:06:25.638Z,3.900
2023-05-29T06:07:25.752Z,3.700
2023-05-29T06:08:25.185Z,3.900
2023-05-29T06:09:25.251Z,3.5
2023-05-29T06:10:25.373Z,3.599
2023-05-29T06:11:25.650Z,3.900
2023-05-29T06:12:26.323Z,3.799
2023-05-29T06:13:25.891Z,3.5
2023-05-29T06:14:25.455Z,3.599
2023-05-29T06:15:26.562Z,3.700
2023-05-29T06:16:26.184Z,3.599
2023-05-29T06:17:25.812Z,3.400
2023-05-29T06:18:25.294Z,3.700
2023-05-29T06:21:25.914Z,3.900
2023-05-29T06:22:25.871Z,3.599
2023-05-29T06:23:25.563Z,3.400
2023-05-29T06:25:25.976Z,4.099
2023-05-29T06:26:25.759Z,3.700
2023-05-29T06:27:25.847Z,3.799
2023-05-29T06:28:25.747Z,3.700
2023-05-29T06:29:25.740Z,4.300
2023-05-29T06:30:25.931Z,3.700
2023-05-29T06:31:26.304Z,4
2023-05-29T06:33:25.927Z,3.700
2023-05-29T06:34:25.636Z,3.599
2023-05-29T06:35:25.580Z,3.900
2023-05-29T06:36:26.463Z,4.099
2023-05-29T06:37:26.243Z,3.799
2023-05-29T06:39:25.418Z,4
2023-05-29T06:40:26.005Z,4.5
2023-05-29T06:41:25.446Z,4.599
2023-05-29T06:42:26.132Z,4
2023-05-29T06:43:25.853Z,3.700
2023-05-29T06:44:25.639Z,4.400
2023-05-29T06:45:26.590Z,4
2023-05-29T06:46:26.163Z,4.099
2023-05-29T06:48:25.417Z,3.5
2023-05-29T06:49:26.019Z,4.099
2023-05-29T06:51:25.473Z,5
2023-05-29T06:52:26.268Z,4.199
2023-05-29T06:53:25.681Z,4.099
2023-05-29T06:54:25.841Z,4.199
2023-05-29T06:58:25.908Z,4
2023-05-29T06:59:25.522Z,4.400
2023-05-29T07:00:27.255Z,4.300
2023-05-29T07:01:26.380Z,3.900
2023-05-29T07:03:26.092Z,4.400
2023-05-29T07:04:25.486Z,4.099
2023-05-29T07:05:26.212Z,4.699
2023-05-29T07:06:25.794Z,4.400
2023-05-29T07:07:25.711Z,4.099
2023-05-29T07:08:25.536Z,4.699
2023-05-29T07:09:25.734Z,4.300
2023-05-29T07:11:25.250Z,4.400
2023-05-29T07:12:26.014Z,4.300
2023-05-29T07:13:25.670Z,3.900
2023-05-29T07:14:25.929Z,4.300
2023-05-29T07:15:26.183Z,4
2023-05-29T07:16:26.126Z,3.400
2023-05-29T07:17:26.182Z,4.199
2023-05-29T07:18:26.083Z,4.5
2023-05-29T07:19:25.612Z,4.099
2023-05-29T07:20:25.819Z,4.400
2023-05-29T07:21:25.683Z,4
2023-05-29T07:22:25.822Z,4.300
2023-05-29T07:23:26.623Z,4.5
2023-05-29T07:24:25.966Z,3.900
2023-05-29T07:25:25.652Z,4
2023-05-29T07:26:25.577Z,4.400
2023-05-29T07:27:25.497Z,4.699
2023-05-29T07:29:25.970Z,4.199
2023-05-29T07:31:25.727Z,4.900
2023-05-29T07:32:25.507Z,4.099
2023-05-29T07:33:26.077Z,4.300
2023-05-29T07:34:25.513Z,4.199
2023-05-29T07:35:26.461Z,4.5
2023-05-29T07:36:25.525Z,4.199
2023-05-29T07:37:26.490Z,3.900
2023-05-29T07:38:25.653Z,4.300
2023-05-29T07:39:25.646Z,4.599
2023-05-29T07:40:25.553Z,4.699
2023-05-29T07:41:26.652Z,4.400
2023-05-29T07:42:25.531Z,4.800
2023-05-29T07:43:26.193Z,4.300
2023-05-29T07:45:25.779Z,4.5
2023-05-29T07:46:26.031Z,4.800
2023-05-29T07:47:26.232Z,4.900
2023-05-29T07:48:25.729Z,4.5
2023-05-29T07:49:25.526Z,4
2023-05-29T07:50:26.356Z,4.199
2023-05-29T07:51:26.286Z,4.5
2023-05-29T07:52:26.037Z,4.300
2023-05-29T07:53:26.279Z,4.599
2023-05-29T07:54:26.039Z,4.5
2023-05-29T07:55:26.089Z,4.099
2023-05-29T07:56:26.079Z,4.699
2023-05-29T07:57:25.997Z,4.400
2023-05-29T07:58:25.993Z,4.300
2023-05-29T08:00:26.582Z,5
2023-05-29T08:02:26.134Z,4.699
2023-05-29T08:04:26.165Z,4.900
2023-05-29T08:06:27.337Z,4.599
2023-05-29T08:07:25.529Z,4.300
2023-05-29T08:08:25.241Z,4.699
2023-05-29T08:09:25.721Z,5.099
2023-05-29T08:10:25.903Z,4.5
2023-05-29T08:11:25.610Z,4.400
2023-05-29T08:12:26.279Z,4.199
2023-05-29T08:13:25.774Z,4.900
2023-05-29T08:14:25.789Z,4.800
2023-05-29T08:16:26.188Z,4.5
2023-05-29T08:17:25.864Z,4.900
2023-05-29T08:18:25.450Z,5
2023-05-29T08:19:25.975Z,4.699
2023-05-29T08:20:25.904Z,4.5
2023-05-29T08:21:25.805Z,4.699
2023-05-29T08:22:25.588Z,4.5
2023-05-29T08:25:25.723Z,4.599
2023-05-29T08:26:25.702Z,4.699
2023-05-29T08:28:25.717Z,4.800
2023-05-29T08:29:25.384Z,4.5
2023-05-29T08:30:25.759Z,4.300
2023-05-29T08:31:25.419Z,5
2023-05-29T08:32:26.207Z,4.599
2023-05-29T08:33:25.828Z,4.400
2023-05-29T08:34:25.620Z,4.900
2023-05-29T08:35:25.935Z,4.599
2023-05-29T08:36:25.734Z,4.800
2023-05-29T08:37:25.636Z,4.300
2023-05-29T08:38:25.097Z,4.599
2023-05-29T08:39:25.826Z,4.5
2023-05-29T08:40:25.840Z,4.400
2023-05-29T08:41:25.616Z,4.5
2023-05-29T08:42:26.492Z,4.199
2023-05-29T08:43:26.241Z,4.300
2023-05-29T08:44:25.800Z,4.5
2023-05-29T08:45:25.703Z,4.099
2023-05-29T08:46:25.446Z,4.300
2023-05-29T08:47:26.296Z,4.800
2023-05-29T08:48:25.556Z,4.5
2023-05-29T08:49:26.201Z,4.400
2023-05-29T08:50:25.737Z,4.599
2023-05-29T08:51:26.097Z,3.900
2023-05-29T08:52:25.877Z,4.699
2023-05-29T08:53:25.679Z,4.800
2023-05-29T08:54:25.716Z,4.400
2023-05-29T08:55:25.765Z,5
2023-05-29T08:56:34.335Z,4.199
2023-05-29T08:57:25.941Z,4.400
2023-05-29T08:58:25.464Z,4.5
2023-05-29T08:59:26.260Z,4.199
2023-05-29T09:00:26.927Z,4.599
2023-05-29T09:01:25.714Z,4.300
2023-05-29T09:02:25.576Z,4.199
2023-05-29T09:03:25.484Z,4.5
2023-05-29T09:04:26.299Z,4.599
2023-05-29T09:05:27.735Z,4.199
2023-05-29T09:06:25.965Z,4.400
2023-05-29T09:07:25.691Z,4.800
2023-05-29T09:08:25.896Z,4.599
2023-05-29T09:11:25.669Z,4.199
2023-05-29T09:12:25.657Z,4.5
2023-05-29T09:14:26.556Z,5.199
2023-05-29T09:15:26.123Z,4.400
2023-05-29T09:16:25.727Z,4.199
2023-05-29T09:18:25.823Z,4.400
2023-05-29T09:19:25.666Z,4.5
2023-05-29T09:20:25.710Z,4.400
2023-05-29T09:21:25.571Z,4.199
2023-05-29T09:23:26.086Z,4.400
2023-05-29T09:24:25.610Z,4.599
2023-05-29T09:26:25.886Z,4.699
2023-05-29T09:27:25.703Z,4.400
2023-05-29T09:28:25.447Z,4.5
2023-05-29T09:29:26.069Z,4.400
2023-05-29T09:30:26.023Z,4.5
2023-05-29T09:31:25.665Z,4.400
2023-05-29T09:32:25.648Z,4.5
2023-05-29T09:33:25.693Z,4.400
2023-05-29T09:34:25.766Z,4.599
2023-05-29T09:35:26.244Z,4.300
2023-05-29T09:36:25.967Z,4.5
2023-05-29T09:37:25.663Z,4.699
2023-05-29T09:38:38.472Z,4.300
2023-05-29T09:39:29.720Z,4.599
2023-05-29T09:41:26.237Z,4.400
2023-05-29T09:42:26.544Z,4.5
2023-05-29T09:43:26.111Z,4.699
2023-05-29T09:44:25.614Z,4.599
2023-05-29T09:45:25.549Z,4.099
2023-05-29T09:47:26.723Z,4.199
2023-05-29T09:48:26.066Z,4.300
2023-05-29T09:49:25.930Z,4.199
2023-05-29T09:50:26.256Z,4.300
2023-05-29T09:51:27.357Z,4.199
2023-05-29T09:52:26.591Z,4.400
2023-05-29T09:53:26.788Z,4.5
2023-05-29T09:55:26.642Z,4.400
2023-05-29T09:57:25.805Z,3.700
2023-05-29T09:58:25.542Z,4.199
2023-05-29T09:59:25.778Z,4.400
2023-05-29T10:00:26.294Z,4.5
2023-05-29T10:01:26.358Z,4.599
2023-05-29T10:02:25.397Z,4.199
2023-05-29T10:03:26.130Z,4
2023-05-29T10:04:25.783Z,4.599
2023-05-29T10:05:25.627Z,4.199
2023-05-29T10:06:25.444Z,4.400
2023-05-29T10:07:26.046Z,4.900
2023-05-29T10:08:25.520Z,4.599
2023-05-29T10:09:26.012Z,4.300
2023-05-29T10:10:26.094Z,4.199
2023-05-29T10:11:26.224Z,4.5
2023-05-29T10:12:26.173Z,4.599
2023-05-29T10:13:25.913Z,4.5
2023-05-29T10:14:25.988Z,4.800
2023-05-29T10:15:26.291Z,5
2023-05-29T10:16:26.633Z,4.599
2023-05-29T10:17:25.731Z,5.099
2023-05-29T10:18:25.950Z,4.599
2023-05-29T10:19:26.325Z,5
2023-05-29T10:20:26.693Z,4.599
2023-05-29T10:21:25.618Z,4.300
2023-05-29T10:22:25.923Z,4
2023-05-29T10:23:25.722Z,4.199
2023-05-29T10:24:25.338Z,3.799
2023-05-29T10:25:26.094Z,3.700
2023-05-29T10:26:25.847Z,4
2023-05-29T10:27:25.679Z,4.599
2023-05-29T10:28:25.449Z,4.099
2023-05-29T10:29:26.178Z,4.400
2023-05-29T10:31:25.633Z,4
2023-05-29T10:33:25.938Z,4.099
2023-05-29T10:35:25.937Z,3.900
2023-05-29T10:36:25.688Z,4.400
2023-05-29T10:37:25.928Z,4.199
2023-05-29T10:38:25.987Z,4.400
2023-05-29T10:39:25.542Z,4
2023-05-29T10:40:25.430Z,4.599
2023-05-29T10:42:25.662Z,4.099
2023-05-29T10:43:25.626Z,4.400
2023-05-29T10:44:25.380Z,4.300
2023-05-29T10:45:26.032Z,4
2023-05-29T10:47:25.971Z,4.400
2023-05-29T10:48:25.506Z,4.5
2023-05-29T10:49:25.420Z,4.300
2023-05-29T10:50:25.829Z,4.099
2023-05-29T10:51:25.156Z,4.300
2023-05-29T10:52:25.771Z,4.800
2023-05-29T10:53:25.862Z,4.400
2023-05-29T10:54:25.528Z,3.599
2023-05-29T10:55:26.221Z,4.199
2023-05-29T10:57:25.327Z,4.300
2023-05-29T10:58:25.697Z,4.599
2023-05-29T10:59:25.206Z,4.199
2023-05-29T11:00:26.643Z,4.400
2023-05-29T11:02:25.849Z,4.199
2023-05-29T11:03:25.546Z,5.199
2023-05-29T11:04:25.823Z,4.699
2023-05-29T11:05:25.965Z,4.400
2023-05-29T11:06:25.570Z,4.5
2023-05-29T11:07:25.926Z,4.099
2023-05-29T11:08:25.671Z,4.300
2023-05-29T11:09:26.102Z,4.400
2023-05-29T11:11:25.310Z,4.699
2023-05-29T11:12:25.842Z,4.300
2023-05-29T11:13:25.523Z,4.699
2023-05-29T11:14:25.968Z,4.599
2023-05-29T11:15:25.916Z,4.699
2023-05-29T11:16:25.538Z,4.5
2023-05-29T11:17:26.125Z,4
2023-05-29T11:18:25.717Z,4.699
2023-05-29T11:19:25.172Z,4.199
2023-05-29T11:20:25.397Z,4.400
2023-05-29T11:21:25.099Z,4.5
2023-05-29T11:22:25.682Z,4.199
2023-05-29T11:23:25.892Z,4.400
2023-05-29T11:24:25.435Z,4.5
2023-05-29T11:25:26.192Z,4.300
2023-05-29T11:26:25.481Z,4.099
2023-05-29T11:27:25.477Z,3.900
2023-05-29T11:28:25.663Z,4.099
2023-05-29T11:29:25.994Z,4.400
2023-05-29T11:30:25.499Z,4.300
2023-05-29T11:31:26.110Z,4.400
2023-05-29T11:32:25.729Z,4
2023-05-29T11:33:25.190Z,4.199
2023-05-29T11:34:25.987Z,4.599
2023-05-29T11:35:25.800Z,4.300
2023-05-29T11:36:25.536Z,4.400
2023-05-29T11:37:25.235Z,4.599
2023-05-29T11:38:25.111Z,4.300
2023-05-29T11:40:25.683Z,4.099
2023-05-29T11:41:25.431Z,4.300
2023-05-29T11:42:26.009Z,4.5
2023-05-29T11:43:25.355Z,4.400
2023-05-29T11:45:25.283Z,4.300
2023-05-29T11:46:25.705Z,4.599
2023-05-29T11:48:25.791Z,4.800
2023-05-29T11:49:25.424Z,5
2023-05-29T11:50:25.293Z,4.599
2023-05-29T11:51:25.843Z,4.400
2023-05-29T11:53:26.001Z,4
2023-05-29T11:54:25.506Z,4.199
2023-05-29T11:55:25.465Z,4.099
2023-05-29T11:56:25.943Z,4
2023-05-29T11:58:25.805Z,3.900
2023-05-29T11:59:25.304Z,4.099
2023-05-29T12:00:26.657Z,4.199
2023-05-29T12:01:26.138Z,4.099
2023-05-29T12:02:25.530Z,4.5
2023-05-29T12:03:25.564Z,4.400
2023-05-29T12:04:26.054Z,4.099
2023-05-29T12:05:25.815Z,4.400
2023-05-29T12:06:25.481Z,4.599
2023-05-29T12:08:25.655Z,4.400
2023-05-29T12:09:25.426Z,4.599
2023-05-29T12:10:26.236Z,4.099
2023-05-29T12:11:25.813Z,4.400
2023-05-29T12:12:25.467Z,4.199
2023-05-29T12:13:26.034Z,4.300
2023-05-29T12:14:25.403Z,4.400
2023-05-29T12:15:26.099Z,4.300
2023-05-29T12:16:25.515Z,4.199
2023-05-29T12:17:25.574Z,4.400
2023-05-29T12:18:25.407Z,5
2023-05-29T12:19:25.710Z,4.699
2023-05-29T12:20:25.477Z,4.400
2023-05-29T12:21:25.405Z,4.699
2023-05-29T12:22:25.805Z,4.099
2023-05-29T12:23:25.307Z,4.400
2023-05-29T12:24:32.180Z,4
2023-05-29T12:26:25.624Z,4.300
2023-05-29T12:27:25.403Z,4.199
2023-05-29T12:28:25.954Z,4
2023-05-29T12:29:25.751Z,4.400
2023-05-29T12:31:25.358Z,4
2023-05-29T12:33:25.235Z,4.5
2023-05-29T12:34:25.615Z,3.799
2023-05-29T12:35:26.152Z,4.199
2023-05-29T12:36:25.952Z,3.900
2023-05-29T12:37:25.517Z,4.400
2023-05-29T12:39:25.762Z,4.699
2023-05-29T12:40:25.224Z,4.199
2023-05-29T12:42:26.135Z,4.099
2023-05-29T12:43:25.585Z,4.5
2023-05-29T12:44:25.022Z,4.199
2023-05-29T12:45:25.829Z,4.699
2023-05-29T12:46:25.273Z,4.199
2023-05-29T12:47:26.129Z,3.799
2023-05-29T12:48:25.504Z,4.300
2023-05-29T12:49:25.804Z,4
2023-05-29T12:51:26.015Z,4.199
2023-05-29T12:52:25.653Z,4
2023-05-29T12:53:25.138Z,4.300
2023-05-29T12:54:25.802Z,4.400
2023-05-29T12:55:25.892Z,3.700
2023-05-29T12:56:25.391Z,3.900
2023-05-29T12:58:25.319Z,4.099
2023-05-29T12:59:25.797Z,4.400
2023-05-29T13:01:25.857Z,4
2023-05-29T13:02:25.520Z,4.199
2023-05-29T13:03:25.269Z,4.599
2023-05-29T13:04:25.867Z,4.099
2023-05-29T13:05:25.654Z,4
2023-05-29T13:06:25.455Z,3.900
2023-05-29T13:07:25.795Z,4.400
2023-05-29T13:08:25.384Z,4.099
2023-05-29T13:09:25.551Z,4
2023-05-29T13:10:25.857Z,4.099
2023-05-29T13:11:25.711Z,4
2023-05-29T13:12:26.084Z,4.400
2023-05-29T13:13:25.457Z,4.5
2023-05-29T13:14:25.839Z,4.400
2023-05-29T13:17:25.564Z,4
2023-05-29T13:18:25.946Z,4.300
2023-05-29T13:19:25.222Z,4.199
2023-05-29T13:20:25.981Z,4.099
2023-05-29T13:21:25.445Z,4.400
2023-05-29T13:22:25.797Z,4
2023-05-29T13:23:27.072Z,3.799
2023-05-29T13:24:25.663Z,3.599
2023-05-29T13:25:25.465Z,3.799
2023-05-29T13:26:25.037Z,4.199
2023-05-29T13:27:25.540Z,4
2023-05-29T13:28:26.135Z,4.400
2023-05-29T13:29:25.743Z,3.799
2023-05-29T13:30:26.319Z,3.599
2023-05-29T13:31:25.764Z,3.799
2023-05-29T13:32:25.592Z,4.199
2023-05-29T13:33:25.662Z,3.799
2023-05-29T13:34:26.078Z,4
2023-05-29T13:35:25.631Z,4.099
2023-05-29T13:36:26.141Z,4
2023-05-29T13:37:25.744Z,3.5
2023-05-29T13:38:25.669Z,3.799
2023-05-29T13:39:25.391Z,4.099
2023-05-29T13:40:26.093Z,3.700
2023-05-29T13:41:25.629Z,3.799
2023-05-29T13:42:25.411Z,4.400
2023-05-29T13:44:25.240Z,4.300
2023-05-29T13:45:26.296Z,3.900
2023-05-29T13:46:25.942Z,4.400
2023-05-29T13:48:25.166Z,4
2023-05-29T13:49:26.274Z,4.199
2023-05-29T13:52:25.303Z,3.5
2023-05-29T13:53:25.797Z,4.099
2023-05-29T13:54:25.295Z,3.700
2023-05-29T13:55:25.970Z,3.599
2023-05-29T13:56:25.414Z,3.799
2023-05-29T13:59:26.157Z,3.700
2023-05-29T14:00:26.482Z,3.900
2023-05-29T14:01:26.309Z,3.5
2023-05-29T14:02:26.016Z,3.900
2023-05-29T14:03:25.607Z,3.700
2023-05-29T14:05:25.606Z,3.299
2023-05-29T14:06:25.459Z,3.799
2023-05-29T14:07:26.047Z,4.199
2023-05-29T14:09:25.822Z,3.599
2023-05-29T14:10:25.401Z,3.799
2023-05-29T14:11:25.769Z,4
2023-05-29T14:13:26.030Z,4.099
2023-05-29T14:14:25.414Z,4
2023-05-29T14:15:26.054Z,3.799
2023-05-29T14:16:25.289Z,3.5
2023-05-29T14:17:25.611Z,3.700
2023-05-29T14:19:25.286Z,3.599
2023-05-29T14:22:25.259Z,3.799
2023-05-29T14:23:25.169Z,3.900
2023-05-29T14:24:25.357Z,3.799
2023-05-29T14:25:25.745Z,3.599
2023-05-29T14:26:25.271Z,3.799
2023-05-29T14:27:25.389Z,3.5
2023-05-29T14:29:25.676Z,3.400
2023-05-29T14:30:26.279Z,3.900
2023-05-29T14:31:25.387Z,3.599
2023-05-29T14:32:25.690Z,3.700
2023-05-29T14:33:25.051Z,3.799
2023-05-29T14:34:25.681Z,3.5
2023-05-29T14:35:25.463Z,3.299
2023-05-29T14:36:25.621Z,4.199
2023-05-29T14:37:25.941Z,3.700
2023-05-29T14:38:25.419Z,3.799
2023-05-29T14:39:25.970Z,4
2023-05-29T14:40:25.246Z,3.599
2023-05-29T14:41:25.251Z,3.5
2023-05-29T14:42:25.164Z,4
2023-05-29T14:43:25.617Z,3.799
2023-05-29T14:44:25.572Z,3.700
2023-05-29T14:45:26.029Z,3.900
2023-05-29T14:48:25.621Z,4.199
2023-05-29T14:49:25.937Z,3.700
2023-05-29T14:50:25.444Z,3.900
2023-05-29T14:52:25.527Z,3.5
2023-05-29T14:53:25.737Z,4.099
2023-05-29T14:55:25.853Z,4
2023-05-29T14:56:25.322Z,3.299
2023-05-29T14:57:26.151Z,3.599
2023-05-29T14:58:25.850Z,3.5
2023-05-29T14:59:25.782Z,3.799
2023-05-29T15:00:26.539Z,3.5
2023-05-29T15:01:25.327Z,3.099
2023-05-29T15:02:25.536Z,3.5
2023-05-29T15:03:25.504Z,3.299
2023-05-29T15:04:25.450Z,3.700
2023-05-29T15:05:26.148Z,3.5
2023-05-29T15:06:26.179Z,3.400